Time;durP1;ratioP1;P1;durP2;ratioP2;P2;SDS_P1;SDS_P2;PMS_P1;PMS_P2;Temp;Humidity;BMP_temperature;BMP_pressure;BME280_temperature;BME280_humidity;BME280_pressure;Samples;Min_cycle;Max_cycle;Signal;HPM_P1;HPM_P2
2022/05/08 00:00:07;;;;;;;24.08;4.28;;;;;;;7.61;100.00;102758.69;10459761;28;20044;-71
2022/05/08 00:05:08;;;;;;;20.88;4.70;;;;;;;7.57;100.00;102760.94;10462174;28;20322;-72
2022/05/08 00:10:09;;;;;;;25.90;5.43;;;;;;;7.43;100.00;102767.25;10461786;28;20037;-72
2022/05/08 00:15:10;;;;;;;15.75;3.25;;;;;;;7.41;100.00;102759.22;10443276;28;20055;-71
2022/05/08 00:20:10;;;;;;;20.88;4.05;;;;;;;7.39;100.00;102754.97;10486404;28;20044;-70
2022/05/08 00:25:11;;;;;;;19.90;3.65;;;;;;;7.33;100.00;102748.34;10502656;28;20114;-71
2022/05/08 00:30:12;;;;;;;18.60;5.22;;;;;;;7.13;100.00;102696.00;10501450;28;20037;-72
2022/05/08 00:35:12;;;;;;;16.20;3.85;;;;;;;7.19;100.00;102714.41;10500811;28;20100;-71
2022/05/08 00:40:13;;;;;;;12.30;3.30;;;;;;;6.81;100.00;102670.59;10500538;28;20059;-67
2022/05/08 00:45:14;;;;;;;14.65;3.22;;;;;;;7.26;100.00;102758.34;10493936;28;20045;-71
2022/05/08 00:50:15;;;;;;;11.55;3.28;;;;;;;7.26;100.00;102752.88;10425436;28;20504;-71
2022/05/08 00:55:15;;;;;;;16.33;3.20;;;;;;;7.24;100.00;102750.31;10443887;28;20048;-71
2022/05/08 01:00:16;;;;;;;15.45;3.45;;;;;;;7.23;100.00;102755.97;10459928;28;20041;-72
2022/05/08 01:05:16;;;;;;;18.88;3.28;;;;;;;7.07;100.00;102743.28;10459763;28;20060;-71
2022/05/08 01:10:17;;;;;;;23.70;4.45;;;;;;;7.02;100.00;102757.53;10459027;28;20071;-71
2022/05/08 01:15:18;;;;;;;20.42;3.90;;;;;;;6.89;100.00;102751.84;10455341;28;20037;-71
2022/05/08 01:20:19;;;;;;;18.40;3.80;;;;;;;6.89;100.00;102751.84;10456928;28;20095;-71
2022/05/08 01:25:20;;;;;;;14.30;3.25;;;;;;;6.85;100.00;102750.50;10460164;28;20060;-71
2022/05/08 01:30:22;;;;;;;11.73;3.72;;;;;;;6.74;100.00;102753.66;10456783;28;20048;-72
2022/05/08 01:35:22;;;;;;;13.75;3.22;;;;;;;6.60;100.00;102747.09;10458652;28;20037;-71
2022/05/08 01:40:24;;;;;;;18.17;5.50;;;;;;;6.48;100.00;102752.13;10458219;28;20115;-71
2022/05/08 01:45:24;;;;;;;18.00;2.88;;;;;;;6.40;100.00;102757.66;10439892;28;20029;-71
2022/05/08 01:50:25;;;;;;;14.98;4.40;;;;;;;6.34;100.00;102758.38;10454060;28;20037;-71
2022/05/08 01:55:25;;;;;;;19.35;3.17;;;;;;;6.23;100.00;102755.00;10457941;28;20036;-71
2022/05/08 02:00:26;;;;;;;17.08;3.63;;;;;;;6.14;100.00;102753.34;10455577;28;20025;-72
2022/05/08 02:05:28;;;;;;;15.65;4.20;;;;;;;6.04;100.00;102753.56;10454689;28;20488;-71
2022/05/08 02:10:28;;;;;;;22.50;5.00;;;;;;;5.98;100.00;102758.91;10437831;28;20044;-72
2022/05/08 02:15:29;;;;;;;16.25;3.35;;;;;;;5.84;100.00;102752.25;10454956;28;20037;-71
2022/05/08 02:20:30;;;;;;;15.65;3.78;;;;;;;5.80;100.00;102754.47;10453719;28;20075;-70
2022/05/08 02:25:30;;;;;;;14.02;3.17;;;;;;;5.85;100.00;102767.66;10455167;28;20177;-71
2022/05/08 02:30:31;;;;;;;16.77;4.00;;;;;;;5.72;100.00;102757.25;10469597;28;20615;-72
2022/05/08 02:35:33;;;;;;;12.75;3.25;;;;;;;5.74;100.00;102768.84;10437140;28;20075;-72
2022/05/08 02:40:34;;;;;;;15.77;4.22;;;;;;;5.68;100.00;102765.97;10456228;28;20428;-72
2022/05/08 02:45:34;;;;;;;16.65;4.15;;;;;;;5.58;100.00;102764.31;10456415;28;20029;-72
2022/05/08 02:50:35;;;;;;;15.32;5.03;;;;;;;5.39;100.00;102746.41;10453602;28;20122;-74
2022/05/08 03:00:54;;;;;;;15.15;3.83;;;;;;;5.34;100.00;102765.19;10483602;28;20099;-74
2022/05/08 03:05:55;;;;;;;20.42;5.10;;;;;;;5.28;100.00;102745.94;10496226;28;20036;-74
2022/05/08 03:16:14;;;;;;;11.13;4.30;;;;;;;5.22;100.00;102764.69;10497323;28;20028;-73
2022/05/08 03:21:15;;;;;;;18.40;6.55;;;;;;;5.17;100.00;102758.06;10458526;28;20033;-74
2022/05/08 03:26:19;;;;;;;11.80;3.83;;;;;;;5.26;100.00;102770.69;10437377;28;20128;-74
2022/05/08 03:31:21;;;;;;;8.65;3.53;;;;;;;5.23;100.00;102765.56;10453773;28;20064;-75
2022/05/08 03:36:21;;;;;;;13.23;3.42;;;;;;;5.25;100.00;102771.72;10460854;28;20033;-75
2022/05/08 03:41:22;;;;;;;15.90;4.55;;;;;;;5.17;100.00;102766.25;10461530;28;20029;-74
2022/05/08 03:46:22;;;;;;;15.82;3.67;;;;;;;5.17;100.00;102766.25;10463817;28;20041;-74
2022/05/08 03:51:23;;;;;;;10.30;3.20;;;;;;;5.18;100.00;102771.53;10461466;28;20033;-74
2022/05/08 03:56:23;;;;;;;13.60;3.85;;;;;;;5.20;100.00;102779.56;10443979;28;20445;-74
2022/05/08 04:01:25;;;;;;;10.75;3.33;;;;;;;5.09;100.00;102763.53;10461956;28;20069;-75
2022/05/08 04:06:25;;;;;;;18.77;3.28;;;;;;;5.23;100.00;102773.75;10443911;28;20044;-74
2022/05/08 04:11:29;;;;;;;14.02;4.20;;;;;;;5.33;100.00;102771.69;10427015;28;20049;-74
2022/05/08 04:16:30;;;;;;;11.68;3.85;;;;;;;5.33;100.00;102776.28;10462718;28;20053;-74
2022/05/08 04:21:31;;;;;;;10.93;2.88;;;;;;;5.40;100.00;102789.09;10458877;28;20050;-75
2022/05/08 04:26:32;;;;;;;10.77;3.47;;;;;;;5.42;100.00;102783.47;10459325;28;20074;-74
2022/05/08 04:31:32;;;;;;;11.93;2.67;;;;;;;5.40;100.00;102778.16;10459227;28;20037;-74
2022/05/08 04:36:33;;;;;;;6.97;2.40;;;;;;;5.54;100.00;102795.75;10459209;28;20033;-74
2022/05/08 04:41:33;;;;;;;9.30;2.50;;;;;;;5.60;100.00;102791.44;10442377;28;20044;-74
2022/05/08 04:46:34;;;;;;;11.82;3.22;;;;;;;5.63;100.00;102799.28;10458939;28;20071;-70
2022/05/08 04:51:35;;;;;;;13.15;3.72;;;;;;;5.66;100.00;102804.41;10481295;28;20036;-75
2022/05/08 04:56:35;;;;;;;15.38;3.40;;;;;;;5.70;100.00;102803.03;10501239;28;20558;-75
2022/05/08 05:01:36;;;;;;;9.07;2.53;;;;;;;5.75;100.00;102800.63;10497634;28;20067;-75
2022/05/08 05:06:36;;;;;;;11.68;3.88;;;;;;;5.58;100.00;102768.91;10499201;28;20044;-75
2022/05/08 05:11:37;;;;;;;14.05;3.00;;;;;;;5.91;100.00;102807.06;10482951;28;20048;-74
2022/05/08 05:16:37;;;;;;;9.57;2.50;;;;;;;6.16;100.00;102827.00;10499863;28;20041;-74
2022/05/08 05:21:37;;;;;;;12.75;2.97;;;;;;;6.26;100.00;102817.56;10500446;28;20040;-74
2022/05/08 05:26:38;;;;;;;7.72;2.35;;;;;;;6.50;100.00;102834.88;10498125;28;20041;-75
2022/05/08 05:31:38;;;;;;;15.00;2.45;;;;;;;6.69;100.00;102841.78;10498165;28;20456;-75
2022/05/08 05:36:39;;;;;;;9.15;2.20;;;;;;;6.98;100.00;102826.53;10498243;28;20051;-69
2022/05/08 05:41:39;;;;;;;7.45;1.60;;;;;;;7.39;100.00;102840.75;10499143;28;20048;-75
2022/05/08 05:51:59;;;;;;;9.75;2.00;;;;;;;8.38;100.00;102828.72;10472790;28;20037;-75
2022/05/08 05:56:59;;;;;;;12.60;1.48;;;;;;;8.69;100.00;102826.56;10455769;28;20487;-75
2022/05/08 06:02:00;;;;;;;11.40;1.40;;;;;;;9.07;100.00;102834.59;10439150;28;20413;-75
2022/05/08 06:07:00;;;;;;;12.27;1.80;;;;;;;9.33;100.00;102843.28;10439636;28;20033;-75
2022/05/08 06:12:01;;;;;;;7.57;1.80;;;;;;;9.69;100.00;102849.50;10456580;28;20033;-72
2022/05/08 06:17:01;;;;;;;11.65;1.67;;;;;;;9.78;100.00;102850.22;10458734;28;20043;-72
2022/05/08 06:22:02;;;;;;;17.02;1.75;;;;;;;9.97;100.00;102858.81;10496183;28;20033;-72
2022/05/08 06:27:03;;;;;;;12.88;3.00;;;;;;;10.06;100.00;102852.91;10498195;28;20451;-72
2022/05/08 06:32:04;;;;;;;8.57;1.65;;;;;;;10.04;100.00;102840.41;10495977;28;20036;-74
2022/05/08 06:37:04;;;;;;;8.77;1.90;;;;;;;10.18;100.00;102850.44;10496689;28;20044;-70
2022/05/08 06:42:06;;;;;;;9.52;1.50;;;;;;;10.57;100.00;102871.00;10499514;28;20044;-72
2022/05/08 06:47:06;;;;;;;9.35;1.92;;;;;;;11.10;100.00;102867.56;10476347;28;20058;-72
2022/05/08 06:52:07;;;;;;;7.60;2.42;;;;;;;10.96;100.00;102822.59;10475149;28;20127;-72
2022/05/08 06:57:07;;;;;;;8.35;1.45;;;;;;;11.13;100.00;102863.53;10472003;28;20037;-72
2022/05/08 07:02:09;;;;;;;10.73;1.55;;;;;;;11.28;100.00;102876.06;10494390;28;20045;-72
2022/05/08 07:07:09;;;;;;;9.25;1.80;;;;;;;10.77;100.00;102884.00;10475437;28;20078;-72
2022/05/08 07:12:10;;;;;;;11.38;1.75;;;;;;;10.96;100.00;102874.97;10502455;28;20097;-72
2022/05/08 07:17:10;;;;;;;7.38;1.48;;;;;;;11.22;100.00;102881.56;10504372;28;20035;-72
2022/05/08 07:22:11;;;;;;;16.30;2.00;;;;;;;11.22;100.00;102881.56;10483079;28;20098;-73
2022/05/08 07:27:11;;;;;;;12.13;1.65;;;;;;;11.00;100.00;102890.03;10503228;28;20040;-72
2022/05/08 07:32:12;;;;;;;9.75;1.50;;;;;;;10.81;100.00;102896.31;10500245;28;20109;-69
2022/05/08 07:37:12;;;;;;;11.52;2.40;;;;;;;10.63;100.00;102894.97;10503718;28;20090;-72
2022/05/08 07:42:13;;;;;;;7.55;2.20;;;;;;;10.79;100.00;102903.94;10502655;28;20044;-71
2022/05/08 07:47:13;;;;;;;11.60;2.08;;;;;;;11.28;100.00;102887.09;10500645;28;20571;-72
2022/05/08 07:52:14;;;;;;;8.98;1.63;;;;;;;11.79;100.00;102893.91;10501891;28;20032;-72
2022/05/08 07:57:15;;;;;;;10.52;2.08;;;;;;;11.34;95.42;102885.41;10499493;28;20496;-72
2022/05/08 08:02:16;;;;;;;13.95;2.67;;;;;;;10.99;98.68;102896.56;10499195;28;20459;-72
2022/05/08 08:07:16;;;;;;;9.88;1.88;;;;;;;10.90;98.88;102890.41;10499944;28;20112;-72
2022/05/08 08:12:17;;;;;;;10.25;1.95;;;;;;;10.71;98.92;102907.72;10502635;28;20051;-72
2022/05/08 08:17:17;;;;;;;15.82;2.50;;;;;;;10.65;99.92;102920.41;10498907;28;20033;-71
2022/05/08 08:22:17;;;;;;;9.85;1.40;;;;;;;10.91;98.77;102902.28;10497340;28;20480;-72
2022/05/08 08:27:19;;;;;;;16.40;2.42;;;;;;;11.00;96.29;102905.72;10500328;28;20198;-72
2022/05/08 08:32:21;;;;;;;11.35;2.72;;;;;;;11.50;97.25;102915.34;10499304;28;20036;-72
2022/05/08 08:37:22;;;;;;;9.32;1.88;;;;;;;12.09;95.17;102910.91;10502462;28;20492;-72
2022/05/08 08:42:30;;;;;;;9.95;1.67;;;;;;;12.30;92.14;102900.69;10499230;28;20044;-71
2022/05/08 08:47:43;;;;;;;11.05;1.70;;;;;;;12.49;89.57;102887.88;10457381;28;20037;-72
2022/05/08 08:52:44;;;;;;;10.40;1.75;;;;;;;12.76;88.75;102901.59;10480895;28;20101;-71
2022/05/08 08:57:45;;;;;;;16.40;3.55;;;;;;;12.99;87.85;102898.28;10498797;28;20385;-72
2022/05/08 09:02:47;;;;;;;12.18;1.52;;;;;;;12.92;86.69;102892.78;10482503;28;20067;-72
2022/05/08 09:07:52;;;;;;;9.52;1.80;;;;;;;13.18;86.29;102902.00;10500664;28;20047;-72
2022/05/08 09:12:53;;;;;;;6.55;1.48;;;;;;;13.20;87.98;102910.91;10498822;28;20033;-72
2022/05/08 09:17:54;;;;;;;13.57;1.83;;;;;;;13.43;86.90;102893.75;10480134;28;20037;-72
2022/05/08 09:23:09;;;;;;;8.77;2.35;;;;;;;13.57;83.23;102900.88;10456443;28;20041;-71
2022/05/08 09:28:31;;;;;;;12.18;2.35;;;;;;;13.77;83.37;102897.97;10458491;28;20092;-71
2022/05/08 09:33:33;;;;;;;8.88;1.55;;;;;;;13.81;84.32;102904.75;10459674;28;20106;-71
2022/05/08 09:38:40;;;;;;;11.07;2.40;;;;;;;14.07;81.30;102894.47;10456862;28;20085;-71
2022/05/08 09:43:41;;;;;;;10.43;2.20;;;;;;;14.13;81.49;102882.47;10455749;28;20048;-71
2022/05/08 09:48:42;;;;;;;13.25;1.83;;;;;;;14.30;80.77;102896.56;10454212;28;20049;-71
2022/05/08 09:53:45;;;;;;;11.50;2.45;;;;;;;14.56;80.64;102880.75;10455588;28;20441;-71
2022/05/08 09:58:47;;;;;;;12.02;1.95;;;;;;;14.71;77.86;102879.25;10456356;28;20044;-71
2022/05/08 10:03:48;;;;;;;11.43;2.10;;;;;;;14.63;77.02;102876.81;10458833;28;20036;-72
2022/05/08 10:08:49;;;;;;;9.57;1.92;;;;;;;14.54;76.10;102879.03;10455206;28;20040;-71
2022/05/08 10:13:54;;;;;;;10.02;2.10;;;;;;;14.56;78.60;102866.91;10468701;28;20420;-71
2022/05/08 10:18:54;;;;;;;12.27;2.80;;;;;;;14.93;77.30;102854.66;10481087;28;20047;-71
2022/05/08 10:23:55;;;;;;;9.55;2.08;;;;;;;15.26;78.01;102869.13;10455237;28;20060;-74
2022/05/08 10:29:01;;;;;;;8.65;1.90;;;;;;;15.05;75.14;102868.56;10454785;28;20040;-73
2022/05/08 10:34:05;;;;;;;;;;;;;;;15.10;76.33;102877.00;10457765;28;20453;-75
2022/05/08 10:39:57;;;;;;;12.40;2.40;;;;;;;15.06;76.76;102878.56;10437936;28;19921;-73
2022/05/08 10:44:57;;;;;;;9.88;2.28;;;;;;;15.32;76.13;102868.16;10453471;28;20132;-72
2022/05/08 10:50:01;;;;;;;7.95;2.10;;;;;;;15.29;73.47;102860.31;10493276;28;20036;-72
2022/05/08 10:55:05;;;;;;;8.80;2.03;;;;;;;15.52;76.46;102868.69;10445702;28;20033;-72
2022/05/08 11:00:10;;;;;;;7.57;2.03;;;;;;;15.73;73.46;102856.19;10476518;28;20051;-70
2022/05/08 11:05:11;;;;;;;10.10;1.98;;;;;;;15.56;72.49;102868.19;10445459;28;20033;-70
2022/05/08 11:10:16;;;;;;;13.95;2.15;;;;;;;15.45;72.48;102848.50;10478444;28;20043;-73
2022/05/08 11:15:16;;;;;;;6.93;2.28;;;;;;;15.84;73.94;102856.44;10461304;28;20060;-71
2022/05/08 11:20:17;;;;;;;8.63;1.92;;;;;;;15.67;72.34;102853.50;10448367;28;20072;-74
2022/05/08 11:25:17;;;;;;;10.68;2.10;;;;;;;15.68;71.81;102856.00;10460900;28;20055;-73
2022/05/08 11:30:35;;;;;;;11.45;2.25;;;;;;;15.73;71.93;102836.75;10455829;28;20116;-72
2022/05/08 11:40:55;;;;;;;8.95;2.25;;;;;;;16.25;69.26;102833.19;10438816;28;20037;-70
2022/05/08 11:45:57;;;;;;;8.95;2.33;;;;;;;16.55;68.22;102821.00;10437556;28;20033;-70
2022/05/08 11:50:57;;;;;;;13.98;2.22;;;;;;;17.16;66.98;102813.00;10438069;28;20048;-71
2022/05/08 11:55:58;;;;;;;11.45;1.90;;;;;;;17.70;64.02;102815.28;10453940;28;20041;-70
2022/05/08 12:00:58;;;;;;;11.63;2.30;;;;;;;18.12;64.04;102818.41;10441682;28;20083;-71
2022/05/08 12:06:12;;;;;;;9.88;2.03;;;;;;;18.78;62.07;102811.13;10459895;28;20033;-70
2022/05/08 12:11:36;;;;;;;8.75;2.22;;;;;;;19.15;61.35;102820.44;10462626;28;20036;-69
2022/05/08 12:16:37;;;;;;;9.20;2.15;;;;;;;19.40;59.44;102809.78;10461496;28;20139;-69
2022/05/08 12:21:41;;;;;;;15.75;3.90;;;;;;;19.10;60.54;102823.19;10457180;28;20037;-70
2022/05/08 12:26:41;;;;;;;9.10;2.08;;;;;;;19.30;59.50;102810.53;10447635;28;20392;-70
2022/05/08 12:31:42;;;;;;;12.10;2.17;;;;;;;20.09;57.07;102789.25;10500515;28;20043;-70
2022/05/08 12:36:43;;;;;;;9.25;1.85;;;;;;;19.59;57.94;102790.63;10500214;28;20033;-71
2022/05/08 12:41:43;;;;;;;9.60;2.22;;;;;;;19.75;57.13;102801.66;10501003;28;20086;-70
2022/05/08 12:46:44;;;;;;;13.15;2.15;;;;;;;19.98;56.44;102781.94;10502769;28;20025;-70
2022/05/08 12:51:45;;;;;;;11.18;1.73;;;;;;;20.27;55.51;102791.59;10499537;28;20032;-71
2022/05/08 12:56:45;;;;;;;10.57;2.15;;;;;;;20.08;56.16;102782.00;10473269;28;20049;-67
2022/05/08 13:01:46;;;;;;;10.13;1.58;;;;;;;20.33;55.75;102796.09;10457732;28;21513;-71
2022/05/08 13:06:46;;;;;;;10.43;2.85;;;;;;;20.49;55.94;102776.56;10458839;28;20552;-71
2022/05/08 13:11:48;;;;;;;14.32;3.10;;;;;;;20.47;54.92;102776.00;10460563;28;20336;-70
2022/05/08 13:16:48;;;;;;;8.63;1.80;;;;;;;20.54;55.55;102769.00;10458420;28;20493;-70
2022/05/08 13:21:50;;;;;;;11.57;2.42;;;;;;;20.69;53.37;102751.47;10462452;28;20037;-70
2022/05/08 13:26:57;;;;;;;6.57;1.88;;;;;;;20.45;54.47;102769.84;10498526;28;20040;-70
2022/05/08 13:31:58;;;;;;;7.97;1.83;;;;;;;20.52;54.04;102773.22;10499453;28;20047;-71
2022/05/08 13:36:58;;;;;;;14.52;2.35;;;;;;;19.76;53.99;102760.56;10498806;28;20035;-71
2022/05/08 13:41:59;;;;;;;8.77;2.30;;;;;;;19.83;54.57;102768.75;10464083;28;20036;-72
2022/05/08 13:46:59;;;;;;;11.13;2.60;;;;;;;19.87;54.64;102751.16;10464198;28;20024;-68
2022/05/08 13:52:00;;;;;;;12.30;2.03;;;;;;;20.03;54.63;102762.41;10497339;28;20392;-69
2022/05/08 13:57:02;;;;;;;10.68;1.88;;;;;;;20.07;53.61;102746.75;10457119;28;20036;-76
2022/05/08 14:02:03;;;;;;;11.25;2.30;;;;;;;19.70;55.80;102764.41;10495018;28;20036;-79
2022/05/08 14:07:03;;;;;;;13.07;2.30;;;;;;;19.46;55.40;102759.25;10480004;28;20028;-73
2022/05/08 14:12:04;;;;;;;7.13;2.20;;;;;;;19.43;55.77;102764.53;10480373;28;20048;-72
2022/05/08 14:17:05;;;;;;;11.55;2.30;;;;;;;19.99;55.33;102766.84;10479066;28;20031;-76
2022/05/08 14:22:05;;;;;;;13.10;2.38;;;;;;;20.24;55.37;102758.59;10491136;28;20037;-82
2022/05/08 14:27:08;;;;;;;10.85;1.92;;;;;;;20.04;54.67;102750.13;10457989;28;20044;-78
2022/05/08 14:37:28;;;;;;;9.45;2.40;;;;;;;18.78;56.86;102755.31;10476008;28;20029;-73
2022/05/08 14:42:29;;;;;;;11.52;2.25;;;;;;;19.38;53.93;102733.78;10479376;28;20116;-75
2022/05/08 14:47:29;;;;;;;7.90;2.15;;;;;;;19.68;54.53;102747.13;10476828;28;20048;-75
2022/05/08 14:52:31;;;;;;;17.23;2.30;;;;;;;19.66;55.62;102743.75;10494025;28;20063;-71
2022/05/08 14:57:31;;;;;;;10.20;2.05;;;;;;;19.78;54.63;102727.63;10491281;28;20143;-70
2022/05/08 15:02:32;;;;;;;8.20;2.00;;;;;;;19.89;54.28;102734.13;10493366;28;20045;-70
2022/05/08 15:07:32;;;;;;;9.73;1.88;;;;;;;20.29;54.37;102739.00;10496373;28;20045;-68
2022/05/08 15:12:33;;;;;;;12.45;2.20;;;;;;;20.55;52.00;102716.72;10477362;28;20036;-70
2022/05/08 15:17:34;;;;;;;11.18;2.85;;;;;;;20.76;51.60;102721.22;10493387;28;20037;-72
2022/05/08 15:22:35;;;;;;;10.10;1.95;;;;;;;20.85;52.51;102726.28;10477625;28;20029;-70
2022/05/08 15:27:36;;;;;;;7.88;2.22;;;;;;;20.88;50.52;102706.13;10493841;28;20140;-69
2022/05/08 15:32:36;;;;;;;10.65;2.30;;;;;;;20.76;51.92;102714.78;10479945;28;20110;-68
2022/05/08 15:37:37;;;;;;;9.45;2.15;;;;;;;20.69;52.69;102720.69;10505231;28;20037;-69
2022/05/08 15:42:37;;;;;;;6.28;1.33;;;;;;;20.75;51.85;102713.09;10468355;28;20350;-78
2022/05/08 15:47:38;;;;;;;8.52;2.30;;;;;;;20.87;51.36;102707.25;10467978;28;20127;-74
2022/05/08 15:52:39;;;;;;;11.00;2.00;;;;;;;21.55;51.37;102715.31;10502830;28;20078;-75
2022/05/08 15:57:39;;;;;;;12.00;2.42;;;;;;;21.63;49.63;102708.28;10491300;28;20041;-76
2022/05/08 16:02:40;;;;;;;6.32;1.67;;;;;;;21.67;50.20;102706.59;10424347;28;20068;-74
2022/05/08 16:07:41;;;;;;;9.82;2.03;;;;;;;21.92;48.50;102691.63;10427801;28;20033;-75
2022/05/08 16:23:20;;;;;;;7.63;2.22;;;;;;;20.86;51.34;102714.81;10458304;28;20068;-79
2022/05/08 16:28:21;;;;;;;12.23;2.90;;;;;;;20.97;51.07;102710.03;10498725;28;20037;-73
2022/05/08 16:33:21;;;;;;;7.60;2.00;;;;;;;20.19;52.66;102715.78;10502605;28;20060;-72
2022/05/08 16:38:26;;;;;;;15.45;2.10;;;;;;;20.28;52.15;102709.38;10499498;28;20033;-73
2022/05/08 16:43:27;;;;;;;10.70;2.03;;;;;;;19.96;53.33;102717.91;10482391;28;20098;-73
2022/05/08 16:48:27;;;;;;;9.85;2.30;;;;;;;18.77;55.01;102715.41;10465361;28;20036;-74
2022/05/08 16:53:28;;;;;;;8.52;2.53;;;;;;;18.50;55.95;102734.94;10473755;28;20074;-74
2022/05/08 16:58:28;;;;;;;13.02;2.40;;;;;;;18.43;57.27;102739.88;10468252;28;20048;-73
2022/05/08 17:03:29;;;;;;;9.90;2.35;;;;;;;17.19;60.04;102733.72;10481257;28;20040;-76
2022/05/08 17:08:29;;;;;;;18.92;3.10;;;;;;;16.04;62.48;102745.78;10464831;28;20486;-77
2022/05/08 17:13:30;;;;;;;16.13;2.17;;;;;;;15.43;64.21;102764.63;10477141;28;20047;-72
2022/05/08 17:18:30;;;;;;;10.13;2.25;;;;;;;15.16;66.10;102764.25;10476711;28;20097;-71
2022/05/08 17:23:31;;;;;;;15.00;2.20;;;;;;;14.66;67.08;102771.00;10494339;28;20036;-66
2022/05/08 17:28:48;;;;;;;11.18;2.67;;;;;;;14.09;69.94;102776.00;10458296;28;21146;-69
2022/05/08 17:33:49;;;;;;;17.85;2.88;;;;;;;13.55;72.27;102775.72;10498490;28;20042;-70
2022/05/08 17:38:50;;;;;;;9.55;1.77;;;;;;;12.99;75.46;102724.09;10474596;28;20037;-70
2022/05/08 17:43:50;;;;;;;10.80;2.30;;;;;;;13.05;77.26;102784.84;10456387;28;20082;-69
2022/05/08 17:48:51;;;;;;;13.20;2.47;;;;;;;12.64;78.76;102768.78;10455300;28;20044;-70
2022/05/08 17:53:52;;;;;;;14.40;3.65;;;;;;;12.50;81.34;102770.75;10455431;28;20025;-69
2022/05/08 17:58:53;;;;;;;15.52;3.38;;;;;;;12.30;82.10;102780.00;10439865;28;20041;-70
2022/05/08 18:09:12;;;;;;;13.77;2.40;;;;;;;11.90;82.81;102769.09;10440868;28;20033;-70
2022/05/08 18:14:13;;;;;;;12.68;2.83;;;;;;;11.85;83.50;102790.94;10437683;28;20033;-69
2022/05/08 18:19:13;;;;;;;8.85;2.80;;;;;;;11.76;86.78;102796.91;10456916;28;20060;-70
2022/05/08 18:24:15;;;;;;;11.63;2.35;;;;;;;11.58;88.17;102797.59;10436967;28;20045;-69
2022/05/08 18:29:15;;;;;;;9.27;2.25;;;;;;;11.42;91.03;102805.22;10454489;28;20125;-70
2022/05/08 18:34:16;;;;;;;13.63;2.70;;;;;;;11.16;91.56;102788.69;10455661;28;20021;-69
2022/05/08 18:39:16;;;;;;;11.88;2.70;;;;;;;11.08;95.62;102807.13;10437549;28;20039;-70
2022/05/08 18:44:17;;;;;;;12.43;2.47;;;;;;;11.01;98.45;102809.03;10453456;28;20033;-70
2022/05/08 18:49:22;;;;;;;12.55;2.13;;;;;;;10.75;100.00;102795.19;10455240;28;20531;-69
2022/05/08 18:54:22;;;;;;;14.05;2.63;;;;;;;10.56;100.00;102794.94;10438089;28;20039;-69
2022/05/08 18:59:23;;;;;;;9.85;2.97;;;;;;;10.48;100.00;102815.25;10454047;28;20047;-69
2022/05/08 19:04:24;;;;;;;13.38;2.47;;;;;;;10.21;100.00;102795.00;10453709;28;20044;-69
2022/05/08 19:09:24;;;;;;;15.43;3.25;;;;;;;10.27;100.00;102820.84;10478574;28;20068;-70
2022/05/08 19:14:24;;;;;;;16.40;2.90;;;;;;;10.12;100.00;102826.50;10428352;28;20063;-69
2022/05/08 19:19:26;;;;;;;9.25;2.55;;;;;;;9.97;100.00;102812.88;10461490;28;20159;-70
2022/05/08 19:24:26;;;;;;;16.13;2.65;;;;;;;9.97;100.00;102828.53;10462100;28;20049;-66
2022/05/08 19:29:29;;;;;;;13.10;2.55;;;;;;;9.81;100.00;102830.53;10462368;28;20040;-70
2022/05/08 19:39:49;;;;;;;16.83;3.13;;;;;;;9.53;100.00;102818.69;10460698;28;20533;-69
2022/05/08 19:44:50;;;;;;;13.18;3.17;;;;;;;9.46;100.00;102844.22;10462019;28;20057;-70
2022/05/08 19:49:51;;;;;;;21.27;3.13;;;;;;;9.31;100.00;102848.97;10462009;28;20587;-69
2022/05/08 19:54:51;;;;;;;9.13;3.38;;;;;;;9.16;100.00;102846.31;10460768;28;20144;-70
2022/05/08 19:59:56;;;;;;;13.23;2.65;;;;;;;9.09;100.00;102849.00;10441989;28;20044;-70
2022/05/08 20:04:57;;;;;;;11.30;2.53;;;;;;;8.96;100.00;102850.75;10471180;28;20040;-70
2022/05/08 20:09:57;;;;;;;12.00;3.28;;;;;;;8.89;100.00;102857.03;10441409;28;20029;-71
2022/05/08 20:14:58;;;;;;;14.18;4.10;;;;;;;8.78;100.00;102860.25;10460883;28;20049;-70
2022/05/08 20:19:58;;;;;;;12.93;2.70;;;;;;;8.66;100.00;102861.81;10471914;28;20033;-70
2022/05/08 20:24:59;;;;;;;12.88;3.17;;;;;;;8.42;100.00;102846.53;10475834;28;20550;-72
2022/05/08 20:30:00;;;;;;;18.08;3.03;;;;;;;8.42;100.00;102861.09;10460775;28;20071;-71
2022/05/08 20:35:00;;;;;;;16.85;3.83;;;;;;;8.22;100.00;102838.84;10462731;28;20052;-71
2022/05/08 20:40:01;;;;;;;16.92;3.17;;;;;;;7.45;100.00;102733.13;10469339;28;20068;-71
2022/05/08 20:45:02;;;;;;;19.88;3.50;;;;;;;8.17;100.00;102871.50;10461209;28;20471;-71
2022/05/08 20:50:02;;;;;;;10.70;3.38;;;;;;;8.04;100.00;102868.53;10458007;28;20048;-70
2022/05/08 20:55:03;;;;;;;17.60;3.80;;;;;;;8.02;100.00;102876.13;10458734;28;20109;-71
2022/05/08 21:00:04;;;;;;;13.68;2.95;;;;;;;7.95;100.00;102867.78;10456277;28;20047;-71
2022/05/08 21:10:24;;;;;;;19.27;4.03;;;;;;;7.61;100.00;102865.59;10497862;28;20037;-71
2022/05/08 21:15:25;;;;;;;13.57;3.42;;;;;;;7.54;100.00;102872.84;10497425;28;20032;-71
2022/05/08 21:20:26;;;;;;;17.15;4.40;;;;;;;7.43;100.00;102863.16;10500187;28;20055;-71
2022/05/08 21:25:26;;;;;;;16.38;3.20;;;;;;;7.31;100.00;102854.53;10480582;28;20036;-71
2022/05/08 21:30:27;;;;;;;25.20;3.85;;;;;;;7.26;100.00;102863.31;10498662;28;20032;-71
2022/05/08 21:35:27;;;;;;;15.00;3.47;;;;;;;7.23;100.00;102873.78;10480557;28;20131;-72
2022/05/08 21:40:28;;;;;;;18.35;4.05;;;;;;;7.17;100.00;102879.97;10497586;28;20040;-71
2022/05/08 21:45:28;;;;;;;17.27;5.05;;;;;;;7.10;100.00;102873.53;10498011;28;20040;-72
2022/05/08 21:50:29;;;;;;;15.10;3.65;;;;;;;7.05;100.00;102880.41;10500801;28;20318;-72
2022/05/08 21:55:29;;;;;;;24.60;4.97;;;;;;;7.05;100.00;102887.78;10490593;28;20044;-71
2022/05/08 22:00:30;;;;;;;17.13;4.65;;;;;;;6.97;100.00;102896.91;10455799;28;20052;-72
2022/05/08 22:05:31;;;;;;;19.02;4.68;;;;;;;6.83;100.00;102878.50;10455751;28;20041;-72
2022/05/08 22:10:32;;;;;;;11.65;4.05;;;;;;;6.78;100.00;102883.66;10455361;28;20033;-72
2022/05/08 22:15:32;;;;;;;14.05;3.67;;;;;;;6.66;100.00;102878.59;10439520;28;20068;-72
2022/05/08 22:20:33;;;;;;;15.40;4.28;;;;;;;6.56;100.00;102893.53;10439992;28;20041;-71
2022/05/08 22:25:33;;;;;;;14.88;4.35;;;;;;;6.50;100.00;102886.03;10454677;28;20041;-72
2022/05/08 22:30:34;;;;;;;11.18;3.97;;;;;;;6.35;100.00;102869.50;10454264;28;20488;-71
2022/05/08 22:35:34;;;;;;;12.40;3.72;;;;;;;6.34;100.00;102878.75;10453984;28;20342;-71
2022/05/08 22:40:35;;;;;;;16.38;3.95;;;;;;;6.25;100.00;102876.03;10455300;28;20037;-71
2022/05/08 22:45:35;;;;;;;12.43;3.80;;;;;;;6.06;100.00;102865.50;10455188;28;20079;-72
2022/05/08 22:50:36;;;;;;;22.35;5.18;;;;;;;6.07;100.00;102872.66;10456000;28;20397;-69
2022/05/08 22:55:36;;;;;;;14.68;4.22;;;;;;;6.05;100.00;102874.72;10471330;28;20102;-72
2022/05/08 23:00:37;;;;;;;19.48;5.82;;;;;;;5.96;100.00;102882.09;10453757;28;20033;-72
2022/05/08 23:05:37;;;;;;;17.92;4.47;;;;;;;5.85;100.00;102875.09;10456430;28;20037;-72
2022/05/08 23:10:41;;;;;;;21.90;4.65;;;;;;;5.75;100.00;102873.59;10455334;28;20037;-71
2022/05/08 23:15:41;;;;;;;21.38;5.20;;;;;;;5.81;100.00;102894.75;10454841;28;20040;-72
2022/05/08 23:20:53;;;;;;;17.90;5.95;;;;;;;5.69;100.00;102877.84;10463233;28;20056;-71
2022/05/08 23:25:54;;;;;;;16.58;5.10;;;;;;;5.65;100.00;102890.16;10478372;28;20048;-72
2022/05/08 23:30:56;;;;;;;17.65;5.82;;;;;;;5.71;100.00;102877.69;10493794;28;20216;-73
2022/05/08 23:36:04;;;;;;;16.17;4.55;;;;;;;5.69;100.00;102877.00;10469786;28;20424;-72
2022/05/08 23:41:04;;;;;;;15.50;4.60;;;;;;;5.59;100.00;102875.28;10491551;28;20066;-72
2022/05/08 23:46:05;;;;;;;21.85;7.68;;;;;;;5.66;100.00;102886.38;10490971;28;20098;-72